This is the latest recevied weather packets stored in our database for station/object W4BOD. If no packets are shown the sender has not sent any weather packets the latest 10 day(s).
| Time | Temp. | Humidity | Pressure | Rain* | Wind** | Luminosity | Snow |
|---|---|---|---|---|---|---|---|
| 1777743082 | 18.89° C | 42% | 1016.8 hPa | 0 mm | - | 886 W/m² | - |
| 1777742779 | 18.33° C | 44% | 1016.9 hPa | 0 mm | - | 304 W/m² | - |
| 1777742476 | 18.33° C | 43% | 1016.9 hPa | 0 mm | - | 1136 W/m² | - |
| 1777742171 | 18.89° C | 44% | 1017 hPa | 0 mm | - | 1049 W/m² | - |
| 1777741869 | 18.33° C | 44% | 1016.9 hPa | 0 mm | - | 259 W/m² | - |
| 1777741565 | 18.33° C | 45% | 1017.2 hPa | 0 mm | - | 880 W/m² | - |
| 1777741263 | 18.89° C | 44% | 1017.1 hPa | 0 mm | - | 934 W/m² | - |
| 1777740959 | 18.89° C | 44% | 1017.1 hPa | 0 mm | - | 1017 W/m² | - |
| 1777740656 | 18.89° C | 42% | 1017.3 hPa | 0 mm | - | 603 W/m² | - |
| 1777740352 | 18.33° C | 45% | 1017.1 hPa | 0 mm | - | 931 W/m² | - |
| 1777740049 | 17.78° C | 44% | 1017.2 hPa | 0 mm | - | 931 W/m² | - |
| 1777739745 | 18.89° C | 43% | 1017.3 hPa | 0 mm | - | 926 W/m² | - |
| 1777739442 | 18.33° C | 45% | 1017.3 hPa | 0 mm | - | 930 W/m² | - |
| 1777739139 | 18.33° C | 44% | 1017.5 hPa | 0 mm | - | 203 W/m² | - |
| 1777738836 | 18.33° C | 45% | 1017.4 hPa | 0 mm | - | 901 W/m² | - |
| 1777738532 | 17.22° C | 48% | 1017.7 hPa | 0 mm | - | 870 W/m² | - |
| 1777738230 | 17.22° C | 46% | 1017.5 hPa | 0 mm | - | 874 W/m² | - |
| 1777737928 | 17.78° C | 48% | 1017.7 hPa | 0 mm | - | 855 W/m² | - |
| 1777737626 | 17.78° C | 45% | 1017.7 hPa | 0 mm | - | 842 W/m² | - |
| 1777737325 | 17.78° C | 46% | 1017.7 hPa | 0 mm | - | 830 W/m² | - |
| 1777737021 | 16.67° C | 48% | 1017.6 hPa | 0 mm | - | 827 W/m² | - |
| 1777736716 | 17.78° C | 46% | 1017.6 hPa | 0 mm | - | 815 W/m² | - |
| 1777736072 | 17.22° C | 49% | 1017.7 hPa | 0 mm | - | 798 W/m² | - |
| 1777735769 | 16.67° C | 50% | 1017.6 hPa | 0 mm | - | 791 W/m² | - |
| 1777735466 | 16.67° C | 49% | 1017.5 hPa | 0 mm | - | 778 W/m² | - |
* Rain latest hour (hover to see other rain measurements)
** Current wind speed in m/s (hover to see current wind gust speed)